Time;durP1;ratioP1;P1;durP2;ratioP2;P2;SDS_P1;SDS_P2;PMS_P1;PMS_P2;Temp;Humidity;BMP_temperature;BMP_pressure;BME280_temperature;BME280_humidity;BME280_pressure;Samples;Min_cycle;Max_cycle;Signal;HPM_P1;HPM_P2
2022/05/06 00:01:44;;;;;;;36.83;29.63;;;12.20;99.90;;;;;;4974851;28;20081;-68
2022/05/06 00:04:10;;;;;;;39.17;28.95;;;12.20;99.90;;;;;;4974807;28;20023;-68
2022/05/06 00:06:37;;;;;;;35.35;29.27;;;12.10;99.90;;;;;;4975372;28;20027;-69
2022/05/06 00:09:04;;;;;;;41.45;31.08;;;11.90;99.90;;;;;;4974531;28;20078;-69
2022/05/06 00:11:31;;;;;;;39.63;30.75;;;12.00;99.90;;;;;;4970381;28;20136;-68
2022/05/06 00:13:56;;;;;;;39.95;28.83;;;11.90;99.90;;;;;;4975063;28;20070;-69
2022/05/06 00:16:24;;;;;;;39.28;29.23;;;11.80;99.90;;;;;;4972948;28;20035;-69
2022/05/06 00:18:51;;;;;;;37.10;27.88;;;11.70;99.90;;;;;;4974579;28;20030;-68
2022/05/06 00:21:17;;;;;;;35.70;27.42;;;;;;;;;;4974565;28;20027;-68
2022/05/06 00:23:43;;;;;;;39.30;27.70;;;11.40;99.90;;;;;;4974874;28;20268;-68
2022/05/06 00:26:09;;;;;;;40.13;28.95;;;11.40;99.90;;;;;;4974461;28;20519;-68
2022/05/06 00:28:35;;;;;;;37.88;29.90;;;11.40;99.90;;;;;;4974802;28;20035;-68
2022/05/06 00:31:02;;;;;;;40.70;30.60;;;11.40;99.90;;;;;;4974338;28;20030;-68
2022/05/06 00:33:28;;;;;;;37.95;28.60;;;;;;;;;;4974096;28;20031;-69
2022/05/06 00:35:54;;;;;;;38.70;28.83;;;11.40;99.90;;;;;;4974843;28;20407;-68
2022/05/06 00:38:20;;;;;;;38.03;28.83;;;11.30;99.90;;;;;;4974377;28;20027;-68
2022/05/06 00:40:46;;;;;;;38.30;30.33;;;11.30;99.90;;;;;;4974700;28;20027;-68
2022/05/06 00:43:12;;;;;;;42.50;32.88;;;11.30;99.90;;;;;;4974133;28;20026;-68
2022/05/06 00:45:49;;;;;;;37.03;28.73;;;11.30;99.90;;;;;;4974426;28;20468;-68
2022/05/06 00:48:16;;;;;;;36.63;28.40;;;11.10;99.90;;;;;;4973717;28;20054;-68
2022/05/06 00:50:43;;;;;;;37.45;28.20;;;11.10;99.90;;;;;;4974491;28;20042;-68
2022/05/06 00:53:09;;;;;;;37.05;28.85;;;11.00;99.90;;;;;;4973956;28;20058;-68
2022/05/06 00:55:35;;;;;;;35.80;28.88;;;10.90;99.90;;;;;;4974443;28;20047;-68
2022/05/06 00:58:02;;;;;;;41.63;31.75;;;;;;;;;;4973918;28;20392;-68
2022/05/06 01:00:28;;;;;;;40.20;29.30;;;11.00;99.90;;;;;;4974382;28;20114;-68
2022/05/06 01:02:54;;;;;;;35.72;29.33;;;10.90;99.90;;;;;;4973877;28;20082;-68
2022/05/06 01:05:19;;;;;;;38.53;29.77;;;10.90;99.90;;;;;;4973966;28;20487;-68
2022/05/06 01:07:47;;;;;;;41.40;31.13;;;11.00;99.90;;;;;;4974193;28;20464;-69
2022/05/06 01:10:13;;;;;;;44.80;35.58;;;;;;;;;;4973830;28;20458;-68
2022/05/06 01:12:38;;;;;;;42.90;32.42;;;11.00;99.90;;;;;;4974200;28;20166;-68
2022/05/06 01:15:24;;;;;;;48.85;34.85;;;11.50;99.90;;;;;;4972978;28;20093;-68
2022/05/06 01:17:51;;;;;;;47.03;34.08;;;11.10;99.90;;;;;;4973425;28;20102;-68
2022/05/06 01:20:19;;;;;;;48.97;36.50;;;11.20;99.90;;;;;;4973722;28;20027;-68
2022/05/06 01:22:46;;;;;;;45.50;32.65;;;11.10;99.90;;;;;;4973805;28;20030;-68
2022/05/06 01:25:12;;;;;;;42.13;31.85;;;11.20;99.90;;;;;;4972791;28;20491;-68
2022/05/06 01:28:03;;;;;;;45.28;32.45;;;11.10;99.90;;;;;;4973847;28;20027;-68
2022/05/06 01:30:45;;;;;;;45.13;34.45;;;10.70;99.90;;;;;;4973404;28;20026;-68
2022/05/06 01:33:21;;;;;;;52.58;35.05;;;11.00;99.90;;;;;;4973304;28;20027;-68
2022/05/06 01:35:53;;;;;;;52.75;37.17;;;11.00;99.90;;;;;;4973815;28;20023;-69
2022/05/06 01:38:41;;;;;;;51.75;35.72;;;11.30;99.90;;;;;;4973353;28;20033;-68
2022/05/06 01:41:09;;;;;;;51.65;36.95;;;11.00;99.90;;;;;;4973677;28;20161;-69
2022/05/06 01:43:42;;;;;;;52.63;35.83;;;11.00;99.90;;;;;;4973858;28;20057;-68
2022/05/06 01:46:13;;;;;;;53.75;35.63;;;11.00;99.90;;;;;;4972901;28;20027;-69
2022/05/06 01:48:41;;;;;;;49.90;34.88;;;11.00;99.90;;;;;;4973156;28;20030;-69
2022/05/06 01:51:09;;;;;;;50.17;37.80;;;10.90;99.90;;;;;;4973109;28;20391;-69
2022/05/06 01:53:35;;;;;;;53.90;37.38;;;10.90;99.90;;;;;;4972971;28;20022;-68
2022/05/06 01:56:02;;;;;;;55.38;37.25;;;10.80;99.90;;;;;;4972869;28;20042;-68
2022/05/06 01:58:28;;;;;;;52.85;35.80;;;10.90;99.90;;;;;;4972471;28;20175;-69
2022/05/06 02:00:54;;;;;;;46.38;36.58;;;;;;;;;;4972815;28;20072;-68
2022/05/06 02:06:03;;;;;;;;;;;10.70;99.90;;;;;;4973234;28;20093;-69
2022/05/06 02:08:29;;;;;;;49.83;33.30;;;10.80;99.90;;;;;;4973056;28;19914;-68
2022/05/06 02:10:55;;;;;;;49.70;34.97;;;10.80;99.90;;;;;;4973014;28;20106;-68
2022/05/06 02:13:20;;;;;;;55.90;37.20;;;11.00;99.90;;;;;;4972477;28;20085;-68
2022/05/06 02:15:46;;;;;;;52.33;36.05;;;10.60;99.90;;;;;;4972577;28;20468;-68
2022/05/06 02:18:11;;;;;;;52.30;35.92;;;11.10;99.90;;;;;;4972554;28;20093;-68
2022/05/06 02:20:37;;;;;;;62.78;39.28;;;11.00;99.90;;;;;;4972873;28;20061;-68
2022/05/06 02:23:03;;;;;;;58.78;37.47;;;11.10;99.90;;;;;;4972180;28;20035;-68
2022/05/06 02:25:28;;;;;;;56.50;36.42;;;11.10;99.90;;;;;;4972458;28;20037;-68
2022/05/06 02:27:54;;;;;;;60.13;37.15;;;11.10;99.90;;;;;;4971452;28;20085;-68
2022/05/06 02:33:12;;;;;;;57.30;33.65;;;10.90;99.90;;;;;;4972176;28;20428;-68
2022/05/06 02:35:39;;;;;;;53.08;32.10;;;;;;;;;;4971395;28;20038;-68
2022/05/06 02:38:05;;;;;;;49.35;31.90;;;10.80;99.90;;;;;;4971170;28;20050;-68
2022/05/06 02:40:32;;;;;;;70.00;34.70;;;10.80;99.90;;;;;;4972425;28;20460;-68
2022/05/06 02:42:58;;;;;;;57.45;33.33;;;;;;;;;;4971648;28;20114;-68
2022/05/06 02:45:24;;;;;;;49.28;31.95;;;10.70;99.90;;;;;;4972327;28;20030;-68
2022/05/06 02:47:50;;;;;;;49.00;31.55;;;10.70;99.90;;;;;;4972153;28;20027;-68
2022/05/06 02:50:15;;;;;;;54.83;32.13;;;10.70;99.90;;;;;;4972253;28;20043;-68
2022/05/06 02:52:41;;;;;;;38.42;27.10;;;;;;;;;;4971934;28;20078;-68
2022/05/06 02:55:07;;;;;;;68.88;35.72;;;10.60;99.90;;;;;;4972292;28;20030;-68
2022/05/06 02:57:32;;;;;;;51.22;34.65;;;;;;;;;;4971532;28;20031;-68
2022/05/06 03:00:01;;;;;;;40.53;28.50;;;10.70;99.90;;;;;;4972449;28;20085;-68
2022/05/06 03:02:26;;;;;;;52.35;30.13;;;10.50;99.90;;;;;;4971881;28;20161;-68
2022/05/06 03:04:52;;;;;;;39.05;28.77;;;10.20;99.90;;;;;;4972156;28;20106;-68
2022/05/06 03:07:17;;;;;;;60.90;31.05;;;10.50;99.90;;;;;;4971681;28;20093;-68
2022/05/06 03:09:43;;;;;;;50.30;32.22;;;10.60;99.90;;;;;;4970275;28;20031;-68
2022/05/06 03:12:09;;;;;;;35.15;27.00;;;10.50;99.90;;;;;;4971013;28;20041;-68
2022/05/06 03:14:34;;;;;;;29.48;20.63;;;10.40;99.90;;;;;;4971852;28;20057;-68
2022/05/06 03:17:00;;;;;;;63.15;29.17;;;10.50;99.90;;;;;;4971551;28;20026;-68
2022/05/06 03:19:25;;;;;;;42.70;30.08;;;10.40;99.90;;;;;;4971775;28;20377;-68
2022/05/06 03:21:56;;;;;;;40.33;29.53;;;10.40;99.90;;;;;;4970682;28;20058;-68
2022/05/06 03:24:22;;;;;;;49.55;31.02;;;10.40;99.90;;;;;;4971886;28;20335;-68
2022/05/06 03:26:47;;;;;;;45.75;32.08;;;10.40;99.90;;;;;;4971286;28;20034;-68
2022/05/06 03:29:13;;;;;;;56.00;32.28;;;;;;;;;;4971304;28;20447;-68
2022/05/06 03:31:39;;;;;;;63.78;35.20;;;10.20;99.90;;;;;;4972162;28;20050;-68
2022/05/06 03:34:05;;;;;;;49.50;32.50;;;10.30;99.90;;;;;;4971373;28;20074;-68
2022/05/06 03:36:33;;;;;;;94.10;37.25;;;10.30;99.90;;;;;;4971724;28;20046;-68
2022/05/06 03:38:59;;;;;;;72.90;35.38;;;;;;;;;;4971547;28;20023;-68
2022/05/06 03:41:25;;;;;;;64.70;34.83;;;;;;;;;;4970387;28;20035;-68
2022/05/06 03:43:50;;;;;;;87.77;34.60;;;10.20;99.90;;;;;;4970332;28;20042;-68
2022/05/06 03:46:16;;;;;;;43.23;28.13;;;;;;;;;;4969719;28;20061;-69
2022/05/06 03:48:42;;;;;;;70.00;31.40;;;;;;;;;;4971223;28;20804;-68
2022/05/06 03:51:20;;;;;;;46.72;28.42;;;10.20;99.90;;;;;;4970661;28;20031;-68
2022/05/06 03:53:51;;;;;;;40.77;29.50;;;10.20;99.90;;;;;;4971882;28;20114;-68
2022/05/06 03:56:17;;;;;;;64.78;31.05;;;;;;;;;;4971297;28;20035;-69
2022/05/06 03:58:43;;;;;;;53.90;31.30;;;10.00;99.90;;;;;;4971408;28;20115;-69
2022/05/06 04:01:08;;;;;;;41.55;28.83;;;10.10;99.90;;;;;;4970982;28;20030;-68
2022/05/06 04:03:34;;;;;;;63.20;33.65;;;;;;;;;;4971185;28;20038;-68
2022/05/06 04:06:00;;;;;;;34.97;27.65;;;10.10;99.90;;;;;;4971218;28;20027;-68
2022/05/06 04:08:26;;;;;;;41.67;31.10;;;;;;;;;;4971316;28;20035;-68
2022/05/06 04:10:52;;;;;;;38.35;29.33;;;10.10;99.90;;;;;;4969264;28;20027;-68
2022/05/06 04:13:18;;;;;;;37.60;29.03;;;;;;;;;;4967483;28;20519;-68
2022/05/06 04:15:47;;;;;;;46.03;28.63;;;10.10;99.90;;;;;;4971443;28;20030;-68
2022/05/06 04:18:13;;;;;;;51.10;31.87;;;9.90;99.90;;;;;;4970954;28;20027;-68
2022/05/06 04:23:29;;;;;;;47.78;27.95;;;9.90;99.90;;;;;;4974620;28;20166;-68
2022/05/06 04:26:04;;;;;;;45.83;28.20;;;9.90;99.90;;;;;;4955014;28;20035;-68
2022/05/06 04:28:34;;;;;;;49.77;30.67;;;9.90;99.90;;;;;;4958796;28;20047;-68
2022/05/06 04:31:00;;;;;;;42.43;28.27;;;9.90;99.90;;;;;;4974681;28;20380;-68
2022/05/06 04:33:26;;;;;;;31.67;23.83;;;9.80;99.90;;;;;;4974257;28;20468;-68
2022/05/06 04:35:56;;;;;;;37.67;27.53;;;9.90;99.90;;;;;;4974831;28;20031;-68
2022/05/06 04:38:25;;;;;;;36.13;27.45;;;10.10;99.90;;;;;;4974164;28;20380;-68
2022/05/06 04:40:54;;;;;;;27.93;23.70;;;9.80;99.90;;;;;;4974071;28;20491;-68
2022/05/06 04:43:20;;;;;;;35.77;24.67;;;9.90;99.90;;;;;;4974520;28;20042;-68
2022/05/06 04:45:47;;;;;;;34.00;24.07;;;9.90;99.90;;;;;;4974544;28;20031;-68
2022/05/06 04:48:13;;;;;;;37.60;24.63;;;10.00;99.90;;;;;;4974050;28;20038;-68
2022/05/06 04:50:40;;;;;;;29.30;20.17;;;9.90;99.90;;;;;;4974424;28;20046;-68
2022/05/06 04:53:07;;;;;;;39.77;24.77;;;9.90;99.90;;;;;;4974209;28;20062;-68
2022/05/06 04:55:41;;;;;;;31.15;20.80;;;9.80;99.90;;;;;;4973931;28;20034;-68
2022/05/06 04:58:07;;;;;;;33.63;24.13;;;10.10;99.90;;;;;;4973767;28;20039;-69
2022/05/06 05:00:34;;;;;;;38.15;23.23;;;9.90;99.90;;;;;;4974125;28;20035;-69
2022/05/06 05:03:01;;;;;;;48.78;26.23;;;9.90;99.90;;;;;;4974058;28;20031;-68
2022/05/06 05:05:27;;;;;;;47.97;27.57;;;;;;;;;;4974138;28;20113;-69
2022/05/06 05:07:53;;;;;;;35.90;22.07;;;;;;;;;;4974133;28;20066;-68
2022/05/06 05:10:20;;;;;;;42.17;24.13;;;9.90;99.90;;;;;;4973235;28;20712;-68
2022/05/06 05:12:47;;;;;;;37.30;25.93;;;9.50;99.90;;;;;;4973621;28;20034;-68
2022/05/06 05:15:13;;;;;;;30.30;24.47;;;9.90;99.90;;;;;;4973528;28;20114;-68
2022/05/06 05:17:38;;;;;;;35.15;19.73;;;9.90;99.90;;;;;;4974020;28;20022;-68
2022/05/06 05:20:04;;;;;;;46.67;24.33;;;10.00;99.90;;;;;;4973434;28;20031;-69
2022/05/06 05:22:31;;;;;;;47.30;26.30;;;10.10;99.90;;;;;;4973420;28;20031;-68
2022/05/06 05:24:57;;;;;;;34.37;25.77;;;10.00;99.90;;;;;;4972980;28;20100;-68
2022/05/06 05:27:22;;;;;;;33.23;23.43;;;10.10;99.90;;;;;;4973622;28;20035;-68
2022/05/06 05:29:48;;;;;;;32.23;24.13;;;;;;;;;;4973380;28;20046;-68
2022/05/06 05:32:14;;;;;;;32.13;25.03;;;10.10;99.90;;;;;;4972573;28;20034;-68
2022/05/06 05:34:42;;;;;;;29.73;23.50;;;;;;;;;;4973676;28;20030;-69
2022/05/06 05:37:08;;;;;;;35.90;25.10;;;10.70;99.90;;;;;;4973033;28;20027;-69
2022/05/06 05:39:35;;;;;;;35.17;24.77;;;;;;;;;;4973531;28;20345;-68
2022/05/06 05:42:00;;;;;;;31.70;24.27;;;10.10;99.90;;;;;;4973338;28;20062;-69
2022/05/06 05:49:55;;;;;;;31.98;23.52;;;10.80;99.90;;;;;;4971617;28;20065;-68
2022/05/06 05:52:21;;;;;;;33.33;24.93;;;10.80;99.90;;;;;;4972498;28;20468;-68
2022/05/06 05:54:46;;;;;;;53.87;31.60;;;10.80;99.90;;;;;;4973403;28;20458;-69
2022/05/06 05:57:11;;;;;;;77.25;33.67;;;10.70;99.90;;;;;;4972641;28;20027;-68
2022/05/06 05:59:38;;;;;;;48.00;34.30;;;10.70;99.90;;;;;;4972979;28;20066;-69
2022/05/06 06:02:04;;;;;;;48.97;31.33;;;11.00;99.90;;;;;;4972727;28;20029;-69
2022/05/06 06:04:29;;;;;;;44.53;33.63;;;11.00;99.90;;;;;;4973050;28;20031;-69
2022/05/06 06:06:56;;;;;;;43.83;31.37;;;11.10;99.90;;;;;;4972644;28;20026;-69
2022/05/06 06:09:22;;;;;;;36.53;29.23;;;11.30;99.90;;;;;;4972080;28;20035;-70
2022/05/06 06:11:49;;;;;;;39.08;29.42;;;11.50;99.90;;;;;;4972837;28;20476;-69
2022/05/06 06:14:15;;;;;;;35.35;26.55;;;11.60;99.90;;;;;;4972376;28;20518;-69
2022/05/06 06:16:41;;;;;;;32.60;25.40;;;11.50;99.90;;;;;;4972781;28;20019;-69
2022/05/06 06:19:06;;;;;;;33.55;25.15;;;11.50;99.90;;;;;;4972349;28;20041;-69
2022/05/06 06:21:33;;;;;;;29.15;23.17;;;;;;;;;;4972449;28;20026;-69
2022/05/06 06:23:59;;;;;;;36.25;21.98;;;;;;;;;;4972545;28;20522;-69
2022/05/06 06:26:24;;;;;;;26.88;21.63;;;11.50;99.90;;;;;;4972751;28;20062;-69
2022/05/06 06:28:50;;;;;;;46.63;24.23;;;11.00;99.90;;;;;;4969099;28;20031;-69
2022/05/06 06:31:15;;;;;;;28.73;23.52;;;11.30;99.90;;;;;;4968787;28;20546;-69
2022/05/06 06:33:41;;;;;;;35.13;23.27;;;11.30;99.90;;;;;;4969113;28;20039;-69
2022/05/06 06:36:08;;;;;;;31.85;23.42;;;11.20;99.90;;;;;;4986222;28;20045;-69
2022/05/06 06:38:33;;;;;;;33.88;23.98;;;11.30;99.90;;;;;;4972048;28;20055;-69
2022/05/06 06:41:02;;;;;;;26.25;20.42;;;11.20;99.90;;;;;;4970879;28;20106;-69
2022/05/06 06:43:28;;;;;;;29.65;22.33;;;11.40;99.90;;;;;;4972112;28;20027;-69
2022/05/06 06:45:54;;;;;;;27.48;22.60;;;11.40;99.90;;;;;;4971986;28;20023;-69
2022/05/06 06:48:19;;;;;;;29.63;21.42;;;11.50;99.90;;;;;;4972016;28;20048;-69
2022/05/06 06:50:45;;;;;;;34.38;20.73;;;11.60;99.90;;;;;;4970725;28;20043;-69
2022/05/06 06:53:10;;;;;;;31.63;20.73;;;11.60;99.90;;;;;;4952728;28;20039;-71
2022/05/06 06:55:36;;;;;;;32.17;21.13;;;12.10;99.90;;;;;;4969230;28;20031;-71
2022/05/06 06:58:02;;;;;;;35.33;23.65;;;11.60;99.90;;;;;;4971869;28;20035;-70
2022/05/06 07:00:28;;;;;;;31.00;23.88;;;11.60;99.90;;;;;;4971702;28;20430;-70
2022/05/06 07:02:55;;;;;;;33.92;23.50;;;11.70;99.90;;;;;;4972036;28;20035;-70
2022/05/06 07:05:21;;;;;;;32.88;23.08;;;11.60;99.90;;;;;;4971248;28;20022;-71
2022/05/06 07:13:17;;;;;;;40.20;24.95;;;11.90;99.90;;;;;;4971643;28;20383;-69
2022/05/06 07:15:42;;;;;;;36.53;23.23;;;11.80;99.90;;;;;;4963146;28;20042;-69
2022/05/06 07:18:08;;;;;;;38.35;24.25;;;11.70;99.90;;;;;;4953694;28;20110;-69
2022/05/06 07:20:33;;;;;;;31.60;21.20;;;11.80;99.90;;;;;;4966461;28;20039;-69
2022/05/06 07:22:59;;;;;;;37.58;22.65;;;11.80;99.90;;;;;;4971565;28;20042;-69
2022/05/06 07:25:25;;;;;;;28.38;20.00;;;12.20;99.90;;;;;;4971855;28;20451;-69
2022/05/06 07:27:50;;;;;;;35.75;25.85;;;11.90;99.90;;;;;;4972129;28;20117;-69
2022/05/06 07:30:16;;;;;;;39.75;26.73;;;12.00;99.90;;;;;;4971752;28;20053;-69
2022/05/06 07:32:42;;;;;;;40.33;28.02;;;;;;;;;;4971918;28;20026;-69
2022/05/06 07:35:08;;;;;;;38.45;26.73;;;12.20;99.90;;;;;;4971156;28;20102;-69
2022/05/06 07:37:35;;;;;;;35.33;25.20;;;12.10;99.90;;;;;;4971635;28;20031;-69
2022/05/06 07:40:03;;;;;;;30.48;23.23;;;12.20;99.90;;;;;;4971600;28;20027;-70
2022/05/06 07:42:30;;;;;;;34.53;24.45;;;12.30;99.90;;;;;;4970647;28;20041;-69
2022/05/06 07:44:57;;;;;;;37.33;28.63;;;12.30;99.90;;;;;;4970843;28;20407;-69
2022/05/06 07:47:22;;;;;;;31.70;25.58;;;12.60;99.90;;;;;;4970548;28;20375;-69
2022/05/06 07:49:48;;;;;;;31.60;24.15;;;12.30;99.90;;;;;;4969994;28;20043;-69
2022/05/06 07:52:13;;;;;;;35.17;26.48;;;12.60;99.90;;;;;;4970090;28;20031;-70
2022/05/06 07:54:39;;;;;;;33.40;25.45;;;12.60;99.90;;;;;;4970216;28;20026;-70
2022/05/06 07:57:04;;;;;;;37.78;25.75;;;12.70;99.90;;;;;;4974786;28;20034;-70
2022/05/06 07:59:30;;;;;;;28.38;22.45;;;12.80;99.90;;;;;;4975161;28;20546;-70
2022/05/06 08:04:40;;;;;;;24.25;19.83;;;13.10;99.90;;;;;;4975346;28;20054;-70
2022/05/06 08:07:08;;;;;;;25.27;20.35;;;13.00;99.90;;;;;;4974430;28;20031;-70
2022/05/06 08:09:34;;;;;;;26.65;21.13;;;13.30;99.90;;;;;;4989657;28;20416;-70
2022/05/06 08:12:00;;;;;;;28.13;21.48;;;13.30;99.90;;;;;;4975158;28;20109;-70
2022/05/06 08:14:26;;;;;;;24.77;20.35;;;13.30;99.90;;;;;;4973656;28;20626;-70
2022/05/06 08:16:52;;;;;;;26.42;20.83;;;13.60;99.90;;;;;;4974645;28;20077;-70
2022/05/06 08:19:19;;;;;;;21.42;17.58;;;13.80;99.90;;;;;;4974735;28;20365;-70
2022/05/06 08:21:45;;;;;;;24.05;20.38;;;13.70;99.90;;;;;;4973739;28;20041;-70
2022/05/06 08:24:11;;;;;;;27.23;20.15;;;13.80;99.90;;;;;;4974786;28;20105;-70
2022/05/06 08:26:37;;;;;;;25.60;20.58;;;13.90;99.90;;;;;;4975001;28;20023;-71
2022/05/06 08:29:03;;;;;;;24.88;18.85;;;14.00;99.90;;;;;;4974339;28;20092;-70
2022/05/06 08:31:32;;;;;;;24.45;18.80;;;;;;;;;;4973557;28;20114;-70
2022/05/06 08:33:58;;;;;;;23.20;18.63;;;14.40;99.90;;;;;;4974408;28;20568;-71
2022/05/06 08:36:23;;;;;;;23.80;20.80;;;14.40;99.90;;;;;;4973560;28;20034;-69
2022/05/06 08:38:49;;;;;;;20.92;18.52;;;14.60;99.90;;;;;;4973510;28;20027;-70
2022/05/06 08:41:15;;;;;;;23.95;20.23;;;14.60;99.90;;;;;;4974665;28;20027;-69
2022/05/06 08:43:41;;;;;;;23.15;19.70;;;14.70;99.90;;;;;;4974414;28;20150;-70
2022/05/06 08:51:37;;;;;;;;;;;14.90;99.90;;;;;;4974278;28;20045;-69
2022/05/06 08:54:03;;;;;;;19.25;15.52;;;14.80;99.90;;;;;;4974052;28;19952;-70
2022/05/06 08:56:30;;;;;;;19.88;15.80;;;14.70;99.90;;;;;;4974320;28;20038;-70
2022/05/06 08:58:56;;;;;;;18.77;15.45;;;14.80;99.90;;;;;;4974134;28;20035;-70
2022/05/06 09:01:23;;;;;;;21.05;17.33;;;14.80;99.90;;;;;;4972846;28;20030;-70
2022/05/06 09:03:49;;;;;;;19.08;16.38;;;14.90;99.90;;;;;;4973757;28;20022;-70
2022/05/06 09:06:26;;;;;;;15.30;13.70;;;15.00;99.90;;;;;;4973399;28;20034;-70
2022/05/06 09:08:53;;;;;;;14.48;12.93;;;15.00;99.90;;;;;;4973285;28;20102;-70
2022/05/06 09:12:40;;;;;;;16.92;14.02;;;15.10;99.90;;;;;;4974044;28;20122;-70
2022/05/06 09:14:07;;;;;;;14.77;12.85;;;15.10;99.90;;;;;;4973679;28;20050;-69
2022/05/06 09:16:46;;;;;;;15.07;13.38;;;14.90;99.90;;;;;;4973617;28;20038;-70
2022/05/06 09:19:24;;;;;;;14.68;13.20;;;14.80;99.90;;;;;;4972643;28;20039;-70
2022/05/06 09:22:13;;;;;;;15.15;13.60;;;14.80;99.90;;;;;;4973975;28;20069;-70
2022/05/06 09:24:39;;;;;;;16.85;15.05;;;14.80;99.90;;;;;;4973056;28;20031;-70
2022/05/06 09:27:07;;;;;;;15.63;14.02;;;14.60;99.90;;;;;;4971800;28;20066;-70
2022/05/06 09:29:36;;;;;;;14.75;13.15;;;14.50;99.90;;;;;;4973129;28;20101;-70
2022/05/06 09:32:22;;;;;;;12.52;11.15;;;14.60;99.90;;;;;;4973429;28;20031;-70
2022/05/06 09:34:55;;;;;;;12.25;11.05;;;14.70;99.90;;;;;;4973193;28;20122;-70
2022/05/06 09:37:37;;;;;;;11.55;10.32;;;14.80;99.90;;;;;;4973298;28;20062;-70
2022/05/06 09:40:27;;;;;;;12.70;11.48;;;14.90;99.90;;;;;;4972343;28;20082;-70
2022/05/06 09:42:55;;;;;;;15.63;13.52;;;15.10;99.90;;;;;;4973368;28;20484;-69
2022/05/06 09:45:42;;;;;;;14.63;13.13;;;15.10;99.90;;;;;;4972829;28;20033;-71
2022/05/06 09:48:09;;;;;;;12.85;11.60;;;15.30;99.90;;;;;;4973105;28;20023;-72
2022/05/06 09:50:36;;;;;;;14.35;12.85;;;15.10;99.90;;;;;;4973165;28;20048;-72
2022/05/06 09:53:09;;;;;;;14.60;11.80;;;15.00;99.90;;;;;;4972976;28;20026;-72
2022/05/06 09:55:37;;;;;;;12.77;11.10;;;15.30;99.90;;;;;;4973546;28;20029;-72
2022/05/06 09:58:04;;;;;;;12.40;11.20;;;15.30;99.90;;;;;;4972626;28;20031;-73
2022/05/06 10:00:30;;;;;;;14.77;12.70;;;15.50;99.90;;;;;;4971851;28;20043;-72
2022/05/06 10:02:56;;;;;;;11.80;10.40;;;15.60;99.90;;;;;;4971825;28;20038;-71
2022/05/06 10:05:26;;;;;;;15.52;13.63;;;15.80;99.90;;;;;;4973594;28;20380;-72
2022/05/06 10:08:00;;;;;;;12.60;11.38;;;15.80;99.90;;;;;;4988565;28;20035;-72
2022/05/06 10:10:30;;;;;;;15.05;13.20;;;15.90;99.90;;;;;;4972728;28;20496;-70
2022/05/06 10:12:59;;;;;;;11.75;10.40;;;15.90;99.90;;;;;;4972715;28;20038;-69
2022/05/06 10:15:30;;;;;;;12.35;11.15;;;16.00;99.90;;;;;;4972813;28;20077;-69
2022/05/06 10:18:03;;;;;;;12.15;10.75;;;16.00;99.90;;;;;;4968905;28;20037;-70
2022/05/06 10:20:35;;;;;;;12.80;11.60;;;16.10;99.90;;;;;;4971998;28;20035;-73
2022/05/06 10:23:02;;;;;;;12.02;10.82;;;16.10;99.90;;;;;;4966940;28;20048;-72
2022/05/06 10:25:42;;;;;;;12.07;10.90;;;16.20;99.90;;;;;;4972834;28;20031;-73
2022/05/06 10:34:17;;;;;;;10.57;8.80;;;16.50;99.90;;;;;;4972284;28;20125;-72
2022/05/06 10:36:48;;;;;;;9.82;8.93;;;16.70;99.90;;;;;;4972439;28;20468;-70
2022/05/06 10:39:38;;;;;;;8.82;8.02;;;16.80;99.60;;;;;;4954957;28;20027;-70
2022/05/06 10:42:10;;;;;;;9.13;8.23;;;16.90;99.50;;;;;;4971782;28;20034;-70
2022/05/06 10:44:47;;;;;;;9.25;7.68;;;17.00;98.40;;;;;;4972247;28;20130;-70
2022/05/06 10:47:12;;;;;;;8.23;7.40;;;17.10;97.80;;;;;;4971749;28;20542;-70
2022/05/06 10:49:37;;;;;;;7.32;6.63;;;17.10;98.50;;;;;;4967677;28;20126;-70
2022/05/06 10:52:28;;;;;;;6.82;6.15;;;17.20;98.40;;;;;;4971183;28;20491;-70
2022/05/06 10:55:01;;;;;;;8.57;7.78;;;17.40;98.70;;;;;;4969533;28;20035;-70
2022/05/06 10:57:28;;;;;;;7.10;6.47;;;17.50;98.10;;;;;;4971667;28;20022;-71
2022/05/06 11:00:03;;;;;;;7.80;7.10;;;17.30;97.60;;;;;;4972112;28;20118;-71
2022/05/06 11:02:30;;;;;;;7.95;7.25;;;17.60;97.80;;;;;;4968915;28;20126;-70
2022/05/06 11:05:01;;;;;;;9.05;6.80;;;17.60;97.20;;;;;;4970860;28;20037;-70
2022/05/06 11:07:29;;;;;;;7.20;6.55;;;17.60;96.50;;;;;;4969234;28;20084;-70
2022/05/06 11:09:55;;;;;;;6.88;6.28;;;17.80;96.70;;;;;;4970657;28;20045;-70
2022/05/06 11:12:43;;;;;;;8.38;6.15;;;17.70;95.60;;;;;;4970452;28;20070;-68
2022/05/06 11:15:13;;;;;;;5.03;4.63;;;17.80;95.50;;;;;;4971254;28;20101;-68
2022/05/06 11:17:39;;;;;;;4.47;4.13;;;17.80;95.90;;;;;;4971804;28;20027;-68
2022/05/06 11:20:27;;;;;;;4.05;3.75;;;17.90;94.80;;;;;;4968889;28;20476;-69
2022/05/06 11:23:03;;;;;;;4.85;4.43;;;17.90;95.20;;;;;;4971801;28;20035;-68
2022/05/06 11:25:44;;;;;;;4.63;4.13;;;17.90;94.10;;;;;;4952333;28;20113;-68
2022/05/06 11:28:17;;;;;;;6.22;5.15;;;18.10;94.30;;;;;;4952387;28;20027;-69
2022/05/06 11:30:45;;;;;;;5.82;4.28;;;18.20;94.70;;;;;;4957074;28;20043;-68
2022/05/06 11:33:20;;;;;;;5.18;4.68;;;18.10;94.20;;;;;;4975522;28;20114;-68
2022/05/06 11:35:47;;;;;;;4.95;4.55;;;18.10;94.60;;;;;;4975974;28;20031;-69
2022/05/06 11:38:13;;;;;;;6.72;6.00;;;18.20;94.10;;;;;;4975631;28;20035;-69
2022/05/06 11:40:39;;;;;;;6.53;5.53;;;18.20;92.80;;;;;;4975529;28;20428;-68
2022/05/06 11:43:19;;;;;;;6.18;5.63;;;18.10;93.00;;;;;;4975474;28;20035;-69
2022/05/06 11:48:31;;;;;;;6.45;5.68;;;18.10;93.30;;;;;;4975600;28;20045;-69
2022/05/06 11:50:59;;;;;;;7.35;5.68;;;18.30;93.10;;;;;;4956444;28;20043;-69
2022/05/06 11:53:27;;;;;;;5.15;4.65;;;18.50;93.00;;;;;;4956208;28;20047;-69
2022/05/06 11:55:55;;;;;;;8.05;6.15;;;18.60;92.90;;;;;;4960174;28;20035;-69
2022/05/06 11:58:22;;;;;;;6.30;5.70;;;18.60;92.50;;;;;;4973750;28;20026;-68
2022/05/06 12:00:50;;;;;;;4.78;4.38;;;18.60;92.10;;;;;;4975260;28;20061;-69
2022/05/06 12:03:15;;;;;;;5.40;4.78;;;18.80;92.40;;;;;;4974940;28;20019;-70
2022/05/06 12:05:42;;;;;;;5.60;5.10;;;18.80;91.60;;;;;;4975124;28;20023;-70
2022/05/06 12:08:08;;;;;;;5.90;4.22;;;18.80;91.30;;;;;;4974837;28;20023;-69
2022/05/06 12:10:36;;;;;;;5.05;3.75;;;18.60;91.50;;;;;;4974871;28;20046;-70
2022/05/06 12:13:10;;;;;;;6.60;5.57;;;18.70;91.60;;;;;;4973991;28;20452;-70
2022/05/06 12:15:40;;;;;;;6.47;4.50;;;18.80;90.20;;;;;;4972400;28;20045;-70
2022/05/06 12:18:10;;;;;;;5.72;3.83;;;18.80;91.00;;;;;;4970994;28;20050;-70
2022/05/06 12:20:41;;;;;;;4.82;4.32;;;18.90;89.00;;;;;;4969359;28;20037;-69
2022/05/06 12:23:08;;;;;;;4.13;3.72;;;19.00;89.80;;;;;;4967453;28;20034;-70
2022/05/06 12:25:36;;;;;;;5.63;4.07;;;19.00;90.80;;;;;;4974559;28;20484;-70
2022/05/06 12:28:09;;;;;;;5.47;4.32;;;19.20;90.40;;;;;;4965992;28;20018;-69
2022/05/06 12:30:38;;;;;;;6.30;5.65;;;19.20;89.10;;;;;;4973594;28;20392;-69
2022/05/06 12:33:07;;;;;;;7.13;6.43;;;19.20;90.40;;;;;;4973775;28;20137;-69
2022/05/06 12:35:59;;;;;;;5.85;4.82;;;19.40;90.10;;;;;;4974594;28;20353;-71
2022/05/06 12:38:46;;;;;;;6.30;5.70;;;19.40;89.20;;;;;;4971460;28;20511;-68
2022/05/06 12:41:25;;;;;;;7.70;6.32;;;19.30;90.20;;;;;;4968727;28;20567;-69
2022/05/06 12:43:52;;;;;;;8.52;6.75;;;19.50;88.20;;;;;;4974284;28;20033;-70
2022/05/06 12:46:26;;;;;;;7.30;6.43;;;19.40;89.00;;;;;;4974271;28;20027;-70
2022/05/06 12:51:38;;;;;;;7.13;5.93;;;19.50;88.50;;;;;;4962063;28;20046;-69
2022/05/06 12:54:03;;;;;;;5.72;5.18;;;20.10;89.30;;;;;;4971304;28;20472;-69
2022/05/06 12:56:29;;;;;;;9.93;8.27;;;19.70;87.70;;;;;;4974431;28;20037;-69
2022/05/06 12:58:55;;;;;;;7.72;6.68;;;19.80;86.00;;;;;;4974231;28;20031;-69
2022/05/06 13:01:20;;;;;;;6.78;5.68;;;19.70;86.10;;;;;;4974106;28;20027;-69
2022/05/06 13:03:46;;;;;;;9.27;7.05;;;19.80;86.50;;;;;;4973192;28;20101;-70
2022/05/06 13:06:11;;;;;;;7.70;6.90;;;20.00;85.40;;;;;;4970812;28;20138;-69
2022/05/06 13:08:37;;;;;;;9.18;6.38;;;20.10;85.30;;;;;;4969994;28;20039;-70
2022/05/06 13:11:02;;;;;;;9.05;7.15;;;20.20;85.50;;;;;;4973156;28;20556;-70
2022/05/06 13:13:28;;;;;;;6.40;5.25;;;20.30;84.80;;;;;;4970096;28;20046;-70
2022/05/06 13:15:56;;;;;;;5.10;4.63;;;20.50;84.90;;;;;;4989066;28;20065;-70
2022/05/06 13:18:22;;;;;;;5.90;5.15;;;20.50;84.80;;;;;;4974059;28;20039;-69
2022/05/06 13:20:47;;;;;;;7.57;5.57;;;20.60;83.50;;;;;;4970669;28;20038;-69
2022/05/06 13:23:15;;;;;;;6.75;6.05;;;23.10;84.20;;;;;;4972024;28;20400;-69
2022/05/06 13:25:41;;;;;;;7.40;5.78;;;20.80;81.80;;;;;;4973790;28;20088;-69